Friday Harbor, Washington
Current Conditions -  °F | °C
As of 6:53 PM on Friday 21 Nov 2014 (Local Time) from KFHR Reporting Station
Overcast Overcast  
Wind Chill: 45°   Ceiling: 700
Heat Index: 49°   Visibility: 10mi
Dew Point: 47°   Wind: 9mph
Humidity: 93%   Direction: 170°S
Pressure: 29.29"   Gusts: 22mph
Location:  48.53°N, 123.02°W
Report Text: KFHR 220253Z AUTO 17008G19KT 10SM BKN007 BKN024 OVC030 09/08 A2929 RMK AO2 RAE11 SLP917 P0000 60001 T00940083 53003
Loading
Personal Weather Stations






























Interactive Weather Map New forecast layout! Learn more

10-Day Weather Forecast

Advertisements
Track Severe Weather on mobile